Port Fourchon, Louisiana
Current Conditions -  °F | °C
As of 6:15 AM on Monday 20 Oct 2014 (Local Time) from KXPY Reporting Station
Clear Clear  
Wind Chill: 70°   Ceiling: Unl
Heat Index: 70°   Visibility: 10mi
Dew Point: 61°   Wind: 6mph
Humidity: 73%   Direction: 60°ENE
Pressure: 30.04"   Gusts: NA
Location:  29.12°N, 90.2°W
Report Text: KXPY 201115Z AUTO 06005KT 10SM CLR 21/16 A3004 RMK A01
Loading
Personal Weather Stations






























Interactive Weather Map
Tropical Storm Tracking
New forecast layout! Learn more

10-Day Weather Forecast

Advertisements
Track Severe Weather on mobile